PWSweather.com
Personal Weather Stations
Station Observations
KTXPLANO70
Kemper Estates, Plano, TX

Kemper EstatesPlano, TX

Lat: 33.0674, Lon: -96.7659

Elevation: 737

Station Type: Davis Vantage Pro2

http://www.dallasdawg.com

High Low Average
Temperature 43.7°F6.5°C 37.1°F2.8°C 40.5°F4.7°C
Dew Point 41.1°F5.1°C 31.1°F-0.5°C 35.8°F2.1°C
Winds 10.4 mph 16.7 kmh Calm Calm 4.0 mph E6.4 kmh E
Wind Gusts 18.4 mph29.6 kmh -- 6.0 mph9.7 kmh
Humidity 96% 72% 83%
Pressure 30.51 in1033.2 mb 30.37 in1028.4 mb -
Precipitation 0.00 in0.0 mm - -
Hour Temp Dew Point Humidity Winds Wind Gusts Pressure Precip Precip Rate Daily Precip Total
12:00 AM 38.6°F3.7°C 31.4°F-0.3°C 75% 5.8 mph E9.3 kmh E 9.2 mph14.8 kmh 30.44 in1030.8 mb - 0.00 in0.0 mm 0.00 in0.0 mm
12:05 AM 38.9°F3.8°C 31.6°F-0.2°C 75% 5.8 mph E9.3 kmh E 6.9 mph11.1 kmh 30.44 in1030.8 mb - 0.00 in0.0 mm 0.00 in0.0 mm
12:10 AM 39.1°F3.9°C 31.5°F-0.3°C 74% 4.6 mph ESE7.4 kmh ESE 5.8 mph9.3 kmh 30.44 in1030.8 mb - 0.00 in0.0 mm 0.00 in0.0 mm
12:15 AM 39.2°F4.0°C 31.6°F-0.2°C 74% 6.9 mph ESE11.1 kmh ESE 9.2 mph14.8 kmh 30.44 in1030.8 mb - 0.00 in0.0 mm 0.00 in0.0 mm
12:20 AM 39.3°F4.1°C 31.4°F-0.3°C 73% 5.8 mph E9.3 kmh E 8.1 mph13.0 kmh 30.44 in1030.8 mb - 0.00 in0.0 mm 0.00 in0.0 mm
12:25 AM 39.3°F4.1°C 31.4°F-0.3°C 73% 3.5 mph ESE5.6 kmh ESE 4.6 mph7.4 kmh 30.44 in1030.8 mb - 0.00 in0.0 mm 0.00 in0.0 mm
12:30 AM 39.4°F4.1°C 31.5°F-0.3°C 73% 3.5 mph ESE5.6 kmh ESE 4.6 mph7.4 kmh 30.44 in1030.8 mb - 0.00 in0.0 mm 0.00 in0.0 mm
12:35 AM 39.4°F4.1°C 31.5°F-0.3°C 73% 6.9 mph E11.1 kmh E 8.1 mph13.0 kmh 30.44 in1030.8 mb - 0.00 in0.0 mm 0.00 in0.0 mm
12:40 AM 39.4°F4.1°C 31.5°F-0.3°C 73% 4.6 mph ESE7.4 kmh ESE 6.9 mph11.1 kmh 30.44 in1030.8 mb - 0.00 in0.0 mm 0.00 in0.0 mm
12:45 AM 39.5°F4.2°C 31.5°F-0.3°C 73% 6.9 mph ESE11.1 kmh ESE 9.2 mph14.8 kmh 30.44 in1030.8 mb - 0.00 in0.0 mm 0.00 in0.0 mm
12:50 AM 39.5°F4.2°C 31.6°F-0.2°C 73% 5.8 mph ESE9.3 kmh ESE 4.6 mph7.4 kmh 30.44 in1030.8 mb - 0.00 in0.0 mm 0.00 in0.0 mm
12:55 AM 39.5°F4.2°C 31.6°F-0.2°C 73% 5.8 mph E9.3 kmh E 5.8 mph9.3 kmh 30.44 in1030.8 mb - 0.00 in0.0 mm 0.00 in0.0 mm
01:00 AM 39.6°F4.2°C 31.7°F-0.2°C 73% 4.6 mph E7.4 kmh E 5.8 mph9.3 kmh 30.44 in1030.8 mb - 0.00 in0.0 mm 0.00 in0.0 mm
01:05 AM 39.6°F4.2°C 31.7°F-0.2°C 73% 3.5 mph E5.6 kmh E 5.8 mph9.3 kmh 30.44 in1030.8 mb - 0.00 in0.0 mm 0.00 in0.0 mm
01:10 AM 39.6°F4.2°C 31.7°F-0.2°C 73% 8.1 mph E13.0 kmh E 12.7 mph20.4 kmh 30.45 in1031.2 mb - 0.00 in0.0 mm 0.00 in0.0 mm
01:15 AM 39.6°F4.2°C 31.7°F-0.2°C 73% 9.2 mph E14.8 kmh E 11.5 mph18.5 kmh 30.44 in1030.8 mb - 0.00 in0.0 mm 0.00 in0.0 mm
01:20 AM 39.6°F4.2°C 31.6°F-0.2°C 73% 6.9 mph E11.1 kmh E 9.2 mph14.8 kmh 30.45 in1031.2 mb - 0.00 in0.0 mm 0.00 in0.0 mm
01:25 AM 39.6°F4.2°C 31.6°F-0.2°C 73% 6.9 mph ESE11.1 kmh ESE 12.7 mph20.4 kmh 30.45 in1031.2 mb - 0.00 in0.0 mm 0.00 in0.0 mm
01:30 AM 39.5°F4.2°C 31.6°F-0.2°C 73% 5.8 mph E9.3 kmh E 12.7 mph20.4 kmh 30.45 in1031.2 mb - 0.00 in0.0 mm 0.00 in0.0 mm
01:35 AM 39.6°F4.2°C 31.7°F-0.2°C 73% 6.9 mph E11.1 kmh E 10.4 mph16.7 kmh 30.45 in1031.2 mb - 0.00 in0.0 mm 0.00 in0.0 mm
01:40 AM 39.5°F4.2°C 31.5°F-0.3°C 73% 5.8 mph ESE9.3 kmh ESE 9.2 mph14.8 kmh 30.45 in1031.2 mb - 0.00 in0.0 mm 0.00 in0.0 mm
01:45 AM 39.4°F4.1°C 31.5°F-0.3°C 73% 4.6 mph ESE7.4 kmh ESE 10.4 mph16.7 kmh 30.45 in1031.2 mb - 0.00 in0.0 mm 0.00 in0.0 mm
01:50 AM 39.4°F4.1°C 31.1°F-0.5°C 72% 5.8 mph E9.3 kmh E 8.1 mph13.0 kmh 30.46 in1031.5 mb - 0.00 in0.0 mm 0.00 in0.0 mm
01:55 AM 39.4°F4.1°C 31.5°F-0.3°C 73% 5.8 mph ESE9.3 kmh ESE 9.2 mph14.8 kmh 30.46 in1031.5 mb - 0.00 in0.0 mm 0.00 in0.0 mm
02:00 AM 39.5°F4.2°C 31.6°F-0.2°C 73% 4.6 mph E7.4 kmh E 9.2 mph14.8 kmh 30.45 in1031.2 mb - 0.00 in0.0 mm 0.00 in0.0 mm
02:05 AM 39.4°F4.1°C 31.5°F-0.3°C 73% 8.1 mph E13.0 kmh E 9.2 mph14.8 kmh 30.45 in1031.2 mb - 0.00 in0.0 mm 0.00 in0.0 mm
02:10 AM 39.5°F4.2°C 31.5°F-0.3°C 73% 9.2 mph E14.8 kmh E 10.4 mph16.7 kmh 30.43 in1030.5 mb - 0.00 in0.0 mm 0.00 in0.0 mm
02:15 AM 39.4°F4.1°C 31.5°F-0.3°C 73% 10.4 mph ENE16.7 kmh ENE 15.0 mph24.1 kmh 30.43 in1030.5 mb - 0.00 in0.0 mm 0.00 in0.0 mm
02:20 AM 39.4°F4.1°C 31.5°F-0.3°C 73% 10.4 mph E16.7 kmh E 13.8 mph22.2 kmh 30.43 in1030.5 mb - 0.00 in0.0 mm 0.00 in0.0 mm
02:25 AM 39.4°F4.1°C 31.5°F-0.3°C 73% 5.8 mph E9.3 kmh E 9.2 mph14.8 kmh 30.43 in1030.5 mb - 0.00 in0.0 mm 0.00 in0.0 mm
02:30 AM 39.4°F4.1°C 31.4°F-0.3°C 73% 10.4 mph E16.7 kmh E 15.0 mph24.1 kmh 30.44 in1030.8 mb - 0.00 in0.0 mm 0.00 in0.0 mm
02:35 AM 39.3°F4.1°C 31.3°F-0.4°C 73% 9.2 mph E14.8 kmh E 10.4 mph16.7 kmh 30.44 in1030.8 mb - 0.00 in0.0 mm 0.00 in0.0 mm
02:40 AM 39.2°F4.0°C 31.2°F-0.4°C 73% 9.2 mph E14.8 kmh E 11.5 mph18.5 kmh 30.45 in1031.2 mb - 0.00 in0.0 mm 0.00 in0.0 mm
02:45 AM 39.1°F3.9°C 31.5°F-0.3°C 74% 10.4 mph E16.7 kmh E 18.4 mph29.6 kmh 30.45 in1031.2 mb - 0.00 in0.0 mm 0.00 in0.0 mm
02:50 AM 38.9°F3.8°C 31.3°F-0.4°C 74% 6.9 mph ESE11.1 kmh ESE 16.1 mph25.9 kmh 30.45 in1031.2 mb - 0.00 in0.0 mm 0.00 in0.0 mm
02:55 AM 38.9°F3.8°C 31.3°F-0.4°C 74% 6.9 mph E11.1 kmh E 11.5 mph18.5 kmh 30.45 in1031.2 mb - 0.00 in0.0 mm 0.00 in0.0 mm
03:00 AM 38.8°F3.8°C 31.2°F-0.4°C 74% 5.8 mph E9.3 kmh E 12.7 mph20.4 kmh 30.46 in1031.5 mb - 0.00 in0.0 mm 0.00 in0.0 mm
03:05 AM 38.7°F3.7°C 31.5°F-0.3°C 75% 8.1 mph SE13.0 kmh SE 12.7 mph20.4 kmh 30.46 in1031.5 mb - 0.00 in0.0 mm 0.00 in0.0 mm
03:10 AM 38.6°F3.7°C 31.4°F-0.3°C 75% 10.4 mph E16.7 kmh E 16.1 mph25.9 kmh 30.45 in1031.2 mb - 0.00 in0.0 mm 0.00 in0.0 mm
03:15 AM 38.5°F3.6°C 31.3°F-0.4°C 75% 8.1 mph E13.0 kmh E 17.3 mph27.8 kmh 30.45 in1031.2 mb - 0.00 in0.0 mm 0.00 in0.0 mm
03:20 AM 38.4°F3.6°C 31.5°F-0.3°C 76% 8.1 mph E13.0 kmh E 11.5 mph18.5 kmh 30.45 in1031.2 mb - 0.00 in0.0 mm 0.00 in0.0 mm
03:25 AM 38.4°F3.6°C 31.5°F-0.3°C 76% 9.2 mph ESE14.8 kmh ESE 11.5 mph18.5 kmh 30.45 in1031.2 mb - 0.00 in0.0 mm 0.00 in0.0 mm
03:30 AM 38.4°F3.6°C 31.5°F-0.3°C 76% 6.9 mph E11.1 kmh E 10.4 mph16.7 kmh 30.45 in1031.2 mb - 0.00 in0.0 mm 0.00 in0.0 mm
03:35 AM 38.4°F3.6°C 31.5°F-0.3°C 76% 8.1 mph E13.0 kmh E 11.5 mph18.5 kmh 30.45 in1031.2 mb - 0.00 in0.0 mm 0.00 in0.0 mm
03:40 AM 38.4°F3.6°C 31.5°F-0.3°C 76% 4.6 mph E7.4 kmh E 9.2 mph14.8 kmh 30.45 in1031.2 mb - 0.00 in0.0 mm 0.00 in0.0 mm
03:45 AM 38.4°F3.6°C 31.5°F-0.3°C 76% 4.6 mph E7.4 kmh E 9.2 mph14.8 kmh 30.45 in1031.2 mb - 0.00 in0.0 mm 0.00 in0.0 mm
03:50 AM 38.5°F3.6°C 31.6°F-0.2°C 76% 4.6 mph E7.4 kmh E 12.7 mph20.4 kmh 30.45 in1031.2 mb - 0.00 in0.0 mm 0.00 in0.0 mm
03:55 AM 38.4°F3.6°C 31.5°F-0.3°C 76% 4.6 mph E7.4 kmh E 6.9 mph11.1 kmh 30.45 in1031.2 mb - 0.00 in0.0 mm 0.00 in0.0 mm
04:00 AM 38.4°F3.6°C 31.5°F-0.3°C 76% 5.8 mph E9.3 kmh E 9.2 mph14.8 kmh 30.45 in1031.2 mb - 0.00 in0.0 mm 0.00 in0.0 mm
04:05 AM 38.4°F3.6°C 31.5°F-0.3°C 76% 4.6 mph E7.4 kmh E 10.4 mph16.7 kmh 30.45 in1031.2 mb - 0.00 in0.0 mm 0.00 in0.0 mm
04:10 AM 38.4°F3.6°C 31.5°F-0.3°C 76% 4.6 mph ESE7.4 kmh ESE 5.8 mph9.3 kmh 30.45 in1031.2 mb - 0.00 in0.0 mm 0.00 in0.0 mm
04:15 AM 38.5°F3.6°C 31.6°F-0.2°C 76% 4.6 mph ESE7.4 kmh ESE 11.5 mph18.5 kmh 30.45 in1031.2 mb - 0.00 in0.0 mm 0.00 in0.0 mm
04:20 AM 38.5°F3.6°C 31.3°F-0.4°C 75% 5.8 mph E9.3 kmh E 6.9 mph11.1 kmh 30.45 in1031.2 mb - 0.00 in0.0 mm 0.00 in0.0 mm
04:25 AM 38.3°F3.5°C 31.4°F-0.3°C 76% 8.1 mph E13.0 kmh E 11.5 mph18.5 kmh 30.45 in1031.2 mb - 0.00 in0.0 mm 0.00 in0.0 mm
04:30 AM 38.3°F3.5°C 31.4°F-0.3°C 76% 4.6 mph ESE7.4 kmh ESE 6.9 mph11.1 kmh 30.45 in1031.2 mb - 0.00 in0.0 mm 0.00 in0.0 mm
04:35 AM 38.3°F3.5°C 31.4°F-0.3°C 76% 4.6 mph ESE7.4 kmh ESE 9.2 mph14.8 kmh 30.45 in1031.2 mb - 0.00 in0.0 mm 0.00 in0.0 mm
04:40 AM 38.3°F3.5°C 31.4°F-0.3°C 76% 3.5 mph E5.6 kmh E 6.9 mph11.1 kmh 30.45 in1031.2 mb - 0.00 in0.0 mm 0.00 in0.0 mm
04:45 AM 38.2°F3.4°C 31.3°F-0.4°C 76% 4.6 mph E7.4 kmh E 8.1 mph13.0 kmh 30.45 in1031.2 mb - 0.00 in0.0 mm 0.00 in0.0 mm
04:50 AM 38.3°F3.5°C 31.4°F-0.3°C 76% 4.6 mph E7.4 kmh E 8.1 mph13.0 kmh 30.45 in1031.2 mb - 0.00 in0.0 mm 0.00 in0.0 mm
04:55 AM 38.3°F3.5°C 31.7°F-0.2°C 77% 5.8 mph E9.3 kmh E 6.9 mph11.1 kmh 30.45 in1031.2 mb - 0.00 in0.0 mm 0.00 in0.0 mm
05:00 AM 38.2°F3.4°C 31.6°F-0.2°C 77% 2.3 mph ESE3.7 kmh ESE 3.5 mph5.6 kmh 30.45 in1031.2 mb - 0.00 in0.0 mm 0.00 in0.0 mm
05:05 AM 38.3°F3.5°C 31.7°F-0.2°C 77% 4.6 mph ESE7.4 kmh ESE 5.8 mph9.3 kmh 30.45 in1031.2 mb - 0.00 in0.0 mm 0.00 in0.0 mm
05:10 AM 38.2°F3.4°C 31.3°F-0.4°C 76% 4.6 mph ENE7.4 kmh ENE 4.6 mph7.4 kmh 30.45 in1031.2 mb - 0.00 in0.0 mm 0.00 in0.0 mm
05:15 AM 38.2°F3.4°C 31.3°F-0.4°C 76% 3.5 mph NE5.6 kmh NE 6.9 mph11.1 kmh 30.44 in1030.8 mb - 0.00 in0.0 mm 0.00 in0.0 mm
05:20 AM 38.2°F3.4°C 31.3°F-0.4°C 76% 3.5 mph ENE5.6 kmh ENE 6.9 mph11.1 kmh 30.44 in1030.8 mb - 0.00 in0.0 mm 0.00 in0.0 mm
05:25 AM 38.3°F3.5°C 31.7°F-0.2°C 77% 3.5 mph E5.6 kmh E 6.9 mph11.1 kmh 30.44 in1030.8 mb - 0.00 in0.0 mm 0.00 in0.0 mm
05:30 AM 38.1°F3.4°C 31.5°F-0.3°C 77% 5.8 mph NE9.3 kmh NE 9.2 mph14.8 kmh 30.45 in1031.2 mb - 0.00 in0.0 mm 0.00 in0.0 mm
05:35 AM 38.0°F3.3°C 31.4°F-0.3°C 77% 5.8 mph ENE9.3 kmh ENE 6.9 mph11.1 kmh 30.45 in1031.2 mb - 0.00 in0.0 mm 0.00 in0.0 mm
05:40 AM 38.0°F3.3°C 31.4°F-0.3°C 77% 5.8 mph E9.3 kmh E 6.9 mph11.1 kmh 30.45 in1031.2 mb - 0.00 in0.0 mm 0.00 in0.0 mm
05:45 AM 38.0°F3.3°C 31.4°F-0.3°C 77% 5.8 mph E9.3 kmh E 5.8 mph9.3 kmh 30.45 in1031.2 mb - 0.00 in0.0 mm 0.00 in0.0 mm
05:50 AM 38.0°F3.3°C 31.5°F-0.3°C 77% 4.6 mph E7.4 kmh E 6.9 mph11.1 kmh 30.45 in1031.2 mb - 0.00 in0.0 mm 0.00 in0.0 mm
05:55 AM 38.0°F3.3°C 31.4°F-0.3°C 77% 2.3 mph E3.7 kmh E 3.5 mph5.6 kmh 30.45 in1031.2 mb - 0.00 in0.0 mm 0.00 in0.0 mm
06:00 AM 38.1°F3.4°C 31.5°F-0.3°C 77% 3.5 mph E5.6 kmh E 4.6 mph7.4 kmh 30.45 in1031.2 mb - 0.00 in0.0 mm 0.00 in0.0 mm
06:05 AM 38.1°F3.4°C 31.5°F-0.3°C 77% 4.6 mph ENE7.4 kmh ENE 5.8 mph9.3 kmh 30.45 in1031.2 mb - 0.00 in0.0 mm 0.00 in0.0 mm
06:10 AM 38.0°F3.3°C 31.7°F-0.2°C 78% 2.3 mph E3.7 kmh E 4.6 mph7.4 kmh 30.45 in1031.2 mb - 0.00 in0.0 mm 0.00 in0.0 mm
06:15 AM 38.0°F3.3°C 31.5°F-0.3°C 77% 5.8 mph E9.3 kmh E 6.9 mph11.1 kmh 30.45 in1031.2 mb - 0.00 in0.0 mm 0.00 in0.0 mm
06:20 AM 38.0°F3.3°C 31.4°F-0.3°C 77% 3.5 mph ENE5.6 kmh ENE 9.2 mph14.8 kmh 30.45 in1031.2 mb - 0.00 in0.0 mm 0.00 in0.0 mm
06:25 AM 37.8°F3.2°C 31.6°F-0.2°C 78% 5.8 mph E9.3 kmh E 8.1 mph13.0 kmh 30.45 in1031.2 mb - 0.00 in0.0 mm 0.00 in0.0 mm
06:30 AM 37.7°F3.2°C 31.5°F-0.3°C 78% 3.5 mph ENE5.6 kmh ENE 8.1 mph13.0 kmh 30.45 in1031.2 mb - 0.00 in0.0 mm 0.00 in0.0 mm
06:35 AM 37.7°F3.2°C 31.5°F-0.3°C 78% 5.8 mph E9.3 kmh E 8.1 mph13.0 kmh 30.45 in1031.2 mb - 0.00 in0.0 mm 0.00 in0.0 mm
06:40 AM 37.7°F3.2°C 31.5°F-0.3°C 78% 5.8 mph E9.3 kmh E 6.9 mph11.1 kmh 30.45 in1031.2 mb - 0.00 in0.0 mm 0.00 in0.0 mm
06:45 AM 37.7°F3.2°C 31.5°F-0.3°C 78% 5.8 mph ENE9.3 kmh ENE 8.1 mph13.0 kmh 30.44 in1030.8 mb - 0.00 in0.0 mm 0.00 in0.0 mm
06:50 AM 37.7°F3.2°C 31.5°F-0.3°C 78% 6.9 mph ENE11.1 kmh ENE 8.1 mph13.0 kmh 30.44 in1030.8 mb - 0.00 in0.0 mm 0.00 in0.0 mm
06:55 AM 37.7°F3.2°C 31.5°F-0.3°C 78% 5.8 mph E9.3 kmh E 9.2 mph14.8 kmh 30.45 in1031.2 mb - 0.00 in0.0 mm 0.00 in0.0 mm
07:00 AM 37.5°F3.1°C 31.3°F-0.4°C 78% 4.6 mph E7.4 kmh E 4.6 mph7.4 kmh 30.45 in1031.2 mb - 0.00 in0.0 mm 0.00 in0.0 mm
07:05 AM 37.6°F3.1°C 31.7°F-0.2°C 79% 6.9 mph ENE11.1 kmh ENE 11.5 mph18.5 kmh 30.45 in1031.2 mb - 0.00 in0.0 mm 0.00 in0.0 mm
07:10 AM 37.5°F3.1°C 31.5°F-0.3°C 79% 5.8 mph E9.3 kmh E 9.2 mph14.8 kmh 30.44 in1030.8 mb - 0.00 in0.0 mm 0.00 in0.0 mm
07:15 AM 37.3°F2.9°C 31.4°F-0.3°C 79% 6.9 mph NE11.1 kmh NE 8.1 mph13.0 kmh 30.44 in1030.8 mb - 0.00 in0.0 mm 0.00 in0.0 mm
07:20 AM 37.2°F2.9°C 31.6°F-0.2°C 80% 4.6 mph E7.4 kmh E 8.1 mph13.0 kmh 30.44 in1030.8 mb - 0.00 in0.0 mm 0.00 in0.0 mm
07:25 AM 37.3°F2.9°C 31.7°F-0.2°C 80% 5.8 mph ENE9.3 kmh ENE 9.2 mph14.8 kmh 30.44 in1030.8 mb - 0.00 in0.0 mm 0.00 in0.0 mm
07:30 AM 37.2°F2.9°C 31.6°F-0.2°C 80% 4.6 mph E7.4 kmh E 9.2 mph14.8 kmh 30.45 in1031.2 mb - 0.00 in0.0 mm 0.00 in0.0 mm
07:35 AM 37.1°F2.8°C 31.5°F-0.3°C 80% 4.6 mph ENE7.4 kmh ENE 8.1 mph13.0 kmh 30.45 in1031.2 mb - 0.00 in0.0 mm 0.00 in0.0 mm
07:40 AM 37.3°F2.9°C 31.7°F-0.2°C 80% 3.5 mph NE5.6 kmh NE 5.8 mph9.3 kmh 30.45 in1031.2 mb - 0.00 in0.0 mm 0.00 in0.0 mm
07:45 AM 37.3°F2.9°C 32.0°F0.0°C 81% 4.6 mph NE7.4 kmh NE 6.9 mph11.1 kmh 30.45 in1031.2 mb - 0.00 in0.0 mm 0.00 in0.0 mm
07:50 AM 37.3°F2.9°C 32.0°F0.0°C 81% 6.9 mph ENE11.1 kmh ENE 10.4 mph16.7 kmh 30.46 in1031.5 mb - 0.00 in0.0 mm 0.00 in0.0 mm
07:55 AM 37.4°F3.0°C 32.1°F0.1°C 81% 3.5 mph E5.6 kmh E 9.2 mph14.8 kmh 30.47 in1031.8 mb - 0.00 in0.0 mm 0.00 in0.0 mm
08:00 AM 37.3°F2.9°C 32.0°F0.0°C 81% 5.8 mph E9.3 kmh E 6.9 mph11.1 kmh 30.47 in1031.8 mb - 0.00 in0.0 mm 0.00 in0.0 mm
08:05 AM 37.5°F3.1°C 32.2°F0.1°C 81% 5.8 mph E9.3 kmh E 8.1 mph13.0 kmh 30.47 in1031.8 mb - 0.00 in0.0 mm 0.00 in0.0 mm
08:10 AM 37.4°F3.0°C 32.1°F0.1°C 81% 4.6 mph E7.4 kmh E 6.9 mph11.1 kmh 30.47 in1031.8 mb - 0.00 in0.0 mm 0.00 in0.0 mm
08:15 AM 37.4°F3.0°C 32.1°F0.1°C 81% 4.6 mph E7.4 kmh E 8.1 mph13.0 kmh 30.47 in1031.8 mb - 0.00 in0.0 mm 0.00 in0.0 mm
08:20 AM 37.5°F3.1°C 32.2°F0.1°C 81% 5.8 mph E9.3 kmh E 8.1 mph13.0 kmh 30.46 in1031.5 mb - 0.00 in0.0 mm 0.00 in0.0 mm
08:25 AM 37.4°F3.0°C 32.1°F0.1°C 81% 3.5 mph ENE5.6 kmh ENE 6.9 mph11.1 kmh 30.47 in1031.8 mb - 0.00 in0.0 mm 0.00 in0.0 mm
08:30 AM 37.4°F3.0°C 32.1°F0.1°C 81% 5.8 mph ENE9.3 kmh ENE 8.1 mph13.0 kmh 30.47 in1031.8 mb - 0.00 in0.0 mm 0.00 in0.0 mm
08:35 AM 37.5°F3.1°C 32.2°F0.1°C 81% 5.8 mph ENE9.3 kmh ENE 8.1 mph13.0 kmh 30.47 in1031.8 mb - 0.00 in0.0 mm 0.00 in0.0 mm
08:40 AM 37.5°F3.1°C 32.2°F0.1°C 81% 5.8 mph ENE9.3 kmh ENE 9.2 mph14.8 kmh 30.47 in1031.8 mb - 0.00 in0.0 mm 0.00 in0.0 mm
08:45 AM 37.6°F3.1°C 32.3°F0.2°C 81% 4.6 mph E7.4 kmh E 8.1 mph13.0 kmh 30.46 in1031.5 mb - 0.00 in0.0 mm 0.00 in0.0 mm
08:50 AM 37.7°F3.2°C 32.4°F0.2°C 81% 6.9 mph E11.1 kmh E 9.2 mph14.8 kmh 30.47 in1031.8 mb - 0.00 in0.0 mm 0.00 in0.0 mm
08:55 AM 37.7°F3.2°C 32.4°F0.2°C 81% 4.6 mph E7.4 kmh E 8.1 mph13.0 kmh 30.47 in1031.8 mb - 0.00 in0.0 mm 0.00 in0.0 mm
09:00 AM 37.9°F3.3°C 32.6°F0.3°C 81% 8.1 mph E13.0 kmh E 8.1 mph13.0 kmh 30.47 in1031.8 mb - 0.00 in0.0 mm 0.00 in0.0 mm
09:05 AM 37.9°F3.3°C 32.6°F0.3°C 81% 6.9 mph ENE11.1 kmh ENE 11.5 mph18.5 kmh 30.47 in1031.8 mb - 0.00 in0.0 mm 0.00 in0.0 mm
09:10 AM 37.9°F3.3°C 32.6°F0.3°C 81% 3.5 mph ENE5.6 kmh ENE 4.6 mph7.4 kmh 30.48 in1032.2 mb - 0.00 in0.0 mm 0.00 in0.0 mm
09:15 AM 38.1°F3.4°C 32.8°F0.4°C 81% 5.8 mph NE9.3 kmh NE 9.2 mph14.8 kmh 30.48 in1032.2 mb - 0.00 in0.0 mm 0.00 in0.0 mm
09:20 AM 38.1°F3.4°C 32.8°F0.4°C 81% 5.8 mph NE9.3 kmh NE 8.1 mph13.0 kmh 30.48 in1032.2 mb - 0.00 in0.0 mm 0.00 in0.0 mm
09:25 AM 38.2°F3.4°C 32.9°F0.5°C 81% 6.9 mph E11.1 kmh E 8.1 mph13.0 kmh 30.49 in1032.5 mb - 0.00 in0.0 mm 0.00 in0.0 mm
09:30 AM 38.2°F3.4°C 32.9°F0.5°C 81% 4.6 mph NE7.4 kmh NE 4.6 mph7.4 kmh 30.49 in1032.5 mb - 0.00 in0.0 mm 0.00 in0.0 mm
09:35 AM 38.2°F3.4°C 32.9°F0.5°C 81% 3.5 mph NNE5.6 kmh NNE 6.9 mph11.1 kmh 30.49 in1032.5 mb - 0.00 in0.0 mm 0.00 in0.0 mm
09:40 AM 38.2°F3.4°C 32.9°F0.5°C 81% 3.5 mph E5.6 kmh E 4.6 mph7.4 kmh 30.49 in1032.5 mb - 0.00 in0.0 mm 0.00 in0.0 mm
09:45 AM 38.2°F3.4°C 32.9°F0.5°C 81% 2.3 mph E3.7 kmh E 4.6 mph7.4 kmh 30.50 in1032.8 mb - 0.00 in0.0 mm 0.00 in0.0 mm
09:50 AM 38.3°F3.5°C 33.0°F0.6°C 81% 4.6 mph ENE7.4 kmh ENE 4.6 mph7.4 kmh 30.50 in1032.8 mb - 0.00 in0.0 mm 0.00 in0.0 mm
09:55 AM 38.4°F3.6°C 33.1°F0.6°C 81% 4.6 mph E7.4 kmh E 5.8 mph9.3 kmh 30.50 in1032.8 mb - 0.00 in0.0 mm 0.00 in0.0 mm
10:00 AM 38.5°F3.6°C 33.1°F0.6°C 81% 2.3 mph ESE3.7 kmh ESE 4.6 mph7.4 kmh 30.51 in1033.2 mb - 0.00 in0.0 mm 0.00 in0.0 mm
10:05 AM 38.6°F3.7°C 33.0°F0.6°C 80% 4.6 mph ENE7.4 kmh ENE 6.9 mph11.1 kmh 30.51 in1033.2 mb - 0.00 in0.0 mm 0.00 in0.0 mm
10:10 AM 38.7°F3.7°C 33.0°F0.6°C 80% 3.5 mph E5.6 kmh E 5.8 mph9.3 kmh 30.51 in1033.2 mb - 0.00 in0.0 mm 0.00 in0.0 mm
10:15 AM 38.8°F3.8°C 33.1°F0.6°C 80% 3.5 mph ENE5.6 kmh ENE 6.9 mph11.1 kmh 30.51 in1033.2 mb - 0.00 in0.0 mm 0.00 in0.0 mm
10:20 AM 38.8°F3.8°C 33.2°F0.7°C 80% 4.6 mph ENE7.4 kmh ENE 8.1 mph13.0 kmh 30.51 in1033.2 mb - 0.00 in0.0 mm 0.00 in0.0 mm
10:25 AM 39.0°F3.9°C 33.3°F0.7°C 80% 4.6 mph E7.4 kmh E 4.6 mph7.4 kmh 30.51 in1033.2 mb - 0.00 in0.0 mm 0.00 in0.0 mm
10:30 AM 39.3°F4.1°C 33.3°F0.7°C 79% 5.8 mph ENE9.3 kmh ENE 6.9 mph11.1 kmh 30.50 in1032.8 mb - 0.00 in0.0 mm 0.00 in0.0 mm
10:35 AM 39.5°F4.2°C 33.5°F0.8°C 79% 4.6 mph E7.4 kmh E 9.2 mph14.8 kmh 30.49 in1032.5 mb - 0.00 in0.0 mm 0.00 in0.0 mm
10:40 AM 39.2°F4.0°C 33.2°F0.7°C 79% 6.9 mph ENE11.1 kmh ENE 8.1 mph13.0 kmh 30.49 in1032.5 mb - 0.00 in0.0 mm 0.00 in0.0 mm
10:45 AM 39.6°F4.2°C 33.6°F0.9°C 79% 5.8 mph NE9.3 kmh NE 6.9 mph11.1 kmh 30.49 in1032.5 mb - 0.00 in0.0 mm 0.00 in0.0 mm
10:50 AM 40.1°F4.5°C 33.8°F1.0°C 78% 4.6 mph E7.4 kmh E 8.1 mph13.0 kmh 30.49 in1032.5 mb - 0.00 in0.0 mm 0.00 in0.0 mm
10:55 AM 40.6°F4.8°C 34.0°F1.1°C 77% 5.8 mph NE9.3 kmh NE 8.1 mph13.0 kmh 30.50 in1032.8 mb - 0.00 in0.0 mm 0.00 in0.0 mm
11:00 AM 40.2°F4.6°C 33.9°F1.1°C 78% 6.9 mph NE11.1 kmh NE 8.1 mph13.0 kmh 30.50 in1032.8 mb - 0.00 in0.0 mm 0.00 in0.0 mm
11:05 AM 40.0°F4.4°C 33.7°F0.9°C 78% 4.6 mph NE7.4 kmh NE 5.8 mph9.3 kmh 30.50 in1032.8 mb - 0.00 in0.0 mm 0.00 in0.0 mm
11:10 AM 40.0°F4.4°C 33.7°F0.9°C 78% 4.6 mph NE7.4 kmh NE 6.9 mph11.1 kmh 30.50 in1032.8 mb - 0.00 in0.0 mm 0.00 in0.0 mm
11:15 AM 40.2°F4.6°C 33.9°F1.1°C 78% 3.5 mph E5.6 kmh E 3.5 mph5.6 kmh 30.50 in1032.8 mb - 0.00 in0.0 mm 0.00 in0.0 mm
11:20 AM 40.5°F4.7°C 34.1°F1.2°C 78% 5.8 mph E9.3 kmh E 5.8 mph9.3 kmh 30.50 in1032.8 mb - 0.00 in0.0 mm 0.00 in0.0 mm
11:25 AM 40.8°F4.9°C 34.1°F1.2°C 77% 5.8 mph NE9.3 kmh NE 6.9 mph11.1 kmh 30.50 in1032.8 mb - 0.00 in0.0 mm 0.00 in0.0 mm
11:30 AM 40.5°F4.7°C 34.1°F1.2°C 78% 5.8 mph ENE9.3 kmh ENE 9.2 mph14.8 kmh 30.50 in1032.8 mb - 0.00 in0.0 mm 0.00 in0.0 mm
11:35 AM 40.3°F4.6°C 34.3°F1.3°C 79% 4.6 mph NE7.4 kmh NE 4.6 mph7.4 kmh 30.50 in1032.8 mb - 0.00 in0.0 mm 0.00 in0.0 mm
11:40 AM 40.3°F4.6°C 34.3°F1.3°C 79% 3.5 mph E5.6 kmh E 4.6 mph7.4 kmh 30.50 in1032.8 mb - 0.00 in0.0 mm 0.00 in0.0 mm
11:45 AM 40.2°F4.6°C 34.5°F1.4°C 80% 4.6 mph E7.4 kmh E 5.8 mph9.3 kmh 30.50 in1032.8 mb - 0.00 in0.0 mm 0.00 in0.0 mm
11:50 AM 40.3°F4.6°C 34.3°F1.3°C 79% 4.6 mph ENE7.4 kmh ENE 6.9 mph11.1 kmh 30.50 in1032.8 mb - 0.00 in0.0 mm 0.00 in0.0 mm
11:55 AM 40.6°F4.8°C 34.6°F1.4°C 79% 4.6 mph E7.4 kmh E 5.8 mph9.3 kmh 30.50 in1032.8 mb - 0.00 in0.0 mm 0.00 in0.0 mm
12:00 PM 40.7°F4.8°C 34.7°F1.5°C 79% 4.6 mph E7.4 kmh E 8.1 mph13.0 kmh 30.50 in1032.8 mb - 0.00 in0.0 mm 0.00 in0.0 mm
12:05 PM 40.9°F4.9°C 34.9°F1.6°C 79% 3.5 mph NE5.6 kmh NE 4.6 mph7.4 kmh 30.50 in1032.8 mb - 0.00 in0.0 mm 0.00 in0.0 mm
12:10 PM 40.8°F4.9°C 35.1°F1.7°C 80% 4.6 mph ENE7.4 kmh ENE 6.9 mph11.1 kmh 30.50 in1032.8 mb - 0.00 in0.0 mm 0.00 in0.0 mm
12:15 PM 40.5°F4.7°C 35.2°F1.8°C 81% 1.2 mph E1.9 kmh E 3.5 mph5.6 kmh 30.50 in1032.8 mb - 0.00 in0.0 mm 0.00 in0.0 mm
12:20 PM 40.1°F4.5°C 35.0°F1.7°C 82% 1.2 mph NE1.9 kmh NE 4.6 mph7.4 kmh 30.50 in1032.8 mb - 0.00 in0.0 mm 0.00 in0.0 mm
12:25 PM 40.2°F4.6°C 35.7°F2.1°C 84% 3.5 mph E5.6 kmh E 6.9 mph11.1 kmh 30.50 in1032.8 mb - 0.00 in0.0 mm 0.00 in0.0 mm
12:30 PM 40.0°F4.4°C 35.6°F2.0°C 84% 4.6 mph E7.4 kmh E 5.8 mph9.3 kmh 30.50 in1032.8 mb - 0.00 in0.0 mm 0.00 in0.0 mm
12:35 PM 39.7°F4.3°C 35.6°F2.0°C 85% 3.5 mph E5.6 kmh E 5.8 mph9.3 kmh 30.49 in1032.5 mb - 0.00 in0.0 mm 0.00 in0.0 mm
12:40 PM 39.9°F4.4°C 35.8°F2.1°C 85% 4.6 mph E7.4 kmh E 4.6 mph7.4 kmh 30.49 in1032.5 mb - 0.00 in0.0 mm 0.00 in0.0 mm
12:45 PM 39.9°F4.4°C 35.7°F2.1°C 85% 4.6 mph NE7.4 kmh NE 6.9 mph11.1 kmh 30.49 in1032.5 mb - 0.00 in0.0 mm 0.00 in0.0 mm
12:50 PM 40.2°F4.6°C 36.4°F2.4°C 86% 2.3 mph E3.7 kmh E 4.6 mph7.4 kmh 30.48 in1032.2 mb - 0.00 in0.0 mm 0.00 in0.0 mm
12:55 PM 40.8°F4.9°C 36.6°F2.6°C 85% 4.6 mph E7.4 kmh E 8.1 mph13.0 kmh 30.48 in1032.2 mb - 0.00 in0.0 mm 0.00 in0.0 mm
01:00 PM 40.7°F4.8°C 36.2°F2.3°C 84% 2.3 mph E3.7 kmh E 4.6 mph7.4 kmh 30.48 in1032.2 mb - 0.00 in0.0 mm 0.00 in0.0 mm
01:05 PM 41.0°F5.0°C 36.2°F2.3°C 83% 4.6 mph E7.4 kmh E 6.9 mph11.1 kmh 30.48 in1032.2 mb - 0.00 in0.0 mm 0.00 in0.0 mm
01:10 PM 40.8°F4.9°C 36.1°F2.3°C 83% 4.6 mph E7.4 kmh E 4.6 mph7.4 kmh 30.48 in1032.2 mb - 0.00 in0.0 mm 0.00 in0.0 mm
01:15 PM 40.6°F4.8°C 35.8°F2.1°C 83% 3.5 mph NE5.6 kmh NE 4.6 mph7.4 kmh 30.48 in1032.2 mb - 0.00 in0.0 mm 0.00 in0.0 mm
01:20 PM 40.6°F4.8°C 35.8°F2.1°C 83% 2.3 mph E3.7 kmh E 3.5 mph5.6 kmh 30.48 in1032.2 mb - 0.00 in0.0 mm 0.00 in0.0 mm
01:25 PM 40.8°F4.9°C 36.3°F2.4°C 84% 3.5 mph ENE5.6 kmh ENE 8.1 mph13.0 kmh 30.48 in1032.2 mb - 0.00 in0.0 mm 0.00 in0.0 mm
01:30 PM 41.4°F5.2°C 36.6°F2.6°C 83% 3.5 mph ENE5.6 kmh ENE 4.6 mph7.4 kmh 30.48 in1032.2 mb - 0.00 in0.0 mm 0.00 in0.0 mm
01:35 PM 41.5°F5.3°C 36.1°F2.3°C 81% 2.3 mph E3.7 kmh E 4.6 mph7.4 kmh 30.47 in1031.8 mb - 0.00 in0.0 mm 0.00 in0.0 mm
01:40 PM 41.3°F5.2°C 36.2°F2.3°C 82% 4.6 mph ENE7.4 kmh ENE 6.9 mph11.1 kmh 30.47 in1031.8 mb - 0.00 in0.0 mm 0.00 in0.0 mm
01:45 PM 41.6°F5.3°C 36.5°F2.5°C 82% 5.8 mph ENE9.3 kmh ENE 9.2 mph14.8 kmh 30.46 in1031.5 mb - 0.00 in0.0 mm 0.00 in0.0 mm
01:50 PM 41.7°F5.4°C 36.6°F2.6°C 82% 3.5 mph NE5.6 kmh NE 6.9 mph11.1 kmh 30.46 in1031.5 mb - 0.00 in0.0 mm 0.00 in0.0 mm
01:55 PM 41.7°F5.4°C 36.6°F2.6°C 82% 3.5 mph E5.6 kmh E 8.1 mph13.0 kmh 30.46 in1031.5 mb - 0.00 in0.0 mm 0.00 in0.0 mm
02:00 PM 41.9°F5.5°C 36.8°F2.7°C 82% 5.8 mph ENE9.3 kmh ENE 6.9 mph11.1 kmh 30.45 in1031.2 mb - 0.00 in0.0 mm 0.00 in0.0 mm
02:05 PM 42.1°F5.6°C 37.0°F2.8°C 82% 4.6 mph E7.4 kmh E 4.6 mph7.4 kmh 30.45 in1031.2 mb - 0.00 in0.0 mm 0.00 in0.0 mm
02:10 PM 42.2°F5.7°C 36.8°F2.7°C 81% 5.8 mph E9.3 kmh E 8.1 mph13.0 kmh 30.45 in1031.2 mb - 0.00 in0.0 mm 0.00 in0.0 mm
02:15 PM 42.1°F5.6°C 37.0°F2.8°C 82% 4.6 mph E7.4 kmh E 6.9 mph11.1 kmh 30.44 in1030.8 mb - 0.00 in0.0 mm 0.00 in0.0 mm
02:20 PM 42.3°F5.7°C 37.2°F2.9°C 82% 4.6 mph NE7.4 kmh NE 6.9 mph11.1 kmh 30.44 in1030.8 mb - 0.00 in0.0 mm 0.00 in0.0 mm
02:25 PM 42.5°F5.8°C 37.3°F2.9°C 82% 3.5 mph E5.6 kmh E 6.9 mph11.1 kmh 30.44 in1030.8 mb - 0.00 in0.0 mm 0.00 in0.0 mm
02:30 PM 42.2°F5.7°C 37.1°F2.8°C 82% 3.5 mph NE5.6 kmh NE 3.5 mph5.6 kmh 30.44 in1030.8 mb - 0.00 in0.0 mm 0.00 in0.0 mm
02:35 PM 42.3°F5.7°C 37.5°F3.1°C 83% 3.5 mph ENE5.6 kmh ENE 4.6 mph7.4 kmh 30.43 in1030.5 mb - 0.00 in0.0 mm 0.00 in0.0 mm
02:40 PM 42.7°F5.9°C 37.9°F3.3°C 83% 3.5 mph E5.6 kmh E 4.6 mph7.4 kmh 30.43 in1030.5 mb - 0.00 in0.0 mm 0.00 in0.0 mm
02:45 PM 42.8°F6.0°C 37.7°F3.2°C 82% 3.5 mph NE5.6 kmh NE 5.8 mph9.3 kmh 30.43 in1030.5 mb - 0.00 in0.0 mm 0.00 in0.0 mm
02:50 PM 43.0°F6.1°C 37.9°F3.3°C 82% 2.3 mph ESE3.7 kmh ESE 3.5 mph5.6 kmh 30.43 in1030.5 mb - 0.00 in0.0 mm 0.00 in0.0 mm
02:55 PM 43.1°F6.2°C 38.0°F3.3°C 82% 2.3 mph ENE3.7 kmh ENE 3.5 mph5.6 kmh 30.43 in1030.5 mb - 0.00 in0.0 mm 0.00 in0.0 mm
03:00 PM 43.0°F6.1°C 37.9°F3.3°C 82% 2.3 mph NNE3.7 kmh NNE 3.5 mph5.6 kmh 30.43 in1030.5 mb - 0.00 in0.0 mm 0.00 in0.0 mm
03:05 PM 43.2°F6.2°C 38.1°F3.4°C 82% 2.3 mph NE3.7 kmh NE 3.5 mph5.6 kmh 30.42 in1030.1 mb - 0.00 in0.0 mm 0.00 in0.0 mm
03:10 PM 43.1°F6.2°C 38.0°F3.3°C 82% 3.5 mph NE5.6 kmh NE 4.6 mph7.4 kmh 30.42 in1030.1 mb - 0.00 in0.0 mm 0.00 in0.0 mm
03:15 PM 43.4°F6.3°C 38.2°F3.4°C 82% 3.5 mph ENE5.6 kmh ENE 4.6 mph7.4 kmh 30.42 in1030.1 mb - 0.00 in0.0 mm 0.00 in0.0 mm
03:20 PM 43.0°F6.1°C 37.8°F3.2°C 82% 1.2 mph ENE1.9 kmh ENE 2.3 mph3.7 kmh 30.42 in1030.1 mb - 0.00 in0.0 mm 0.00 in0.0 mm
03:25 PM 43.1°F6.2°C 37.9°F3.3°C 82% 2.3 mph ENE3.7 kmh ENE 3.5 mph5.6 kmh 30.42 in1030.1 mb - 0.00 in0.0 mm 0.00 in0.0 mm
03:30 PM 43.2°F6.2°C 38.1°F3.4°C 82% 4.6 mph E7.4 kmh E 6.9 mph11.1 kmh 30.41 in1029.8 mb - 0.00 in0.0 mm 0.00 in0.0 mm
03:35 PM 43.2°F6.2°C 38.1°F3.4°C 82% 2.3 mph E3.7 kmh E 3.5 mph5.6 kmh 30.41 in1029.8 mb - 0.00 in0.0 mm 0.00 in0.0 mm
03:40 PM 43.4°F6.3°C 38.3°F3.5°C 82% 2.3 mph E3.7 kmh E 3.5 mph5.6 kmh 30.41 in1029.8 mb - 0.00 in0.0 mm 0.00 in0.0 mm
03:45 PM 43.7°F6.5°C 38.6°F3.7°C 82% 2.3 mph E3.7 kmh E 4.6 mph7.4 kmh 30.41 in1029.8 mb - 0.00 in0.0 mm 0.00 in0.0 mm
03:50 PM 43.6°F6.4°C 38.4°F3.6°C 82% 3.5 mph E5.6 kmh E 5.8 mph9.3 kmh 30.40 in1029.5 mb - 0.00 in0.0 mm 0.00 in0.0 mm
03:55 PM 43.4°F6.3°C 38.3°F3.5°C 82% 3.5 mph E5.6 kmh E 4.6 mph7.4 kmh 30.40 in1029.5 mb - 0.00 in0.0 mm 0.00 in0.0 mm
04:00 PM 43.4°F6.3°C 38.2°F3.4°C 82% 2.3 mph ESE3.7 kmh ESE 3.5 mph5.6 kmh 30.40 in1029.5 mb - 0.00 in0.0 mm 0.00 in0.0 mm
04:05 PM 43.5°F6.4°C 38.4°F3.6°C 82% 3.5 mph NE5.6 kmh NE 4.6 mph7.4 kmh 30.40 in1029.5 mb - 0.00 in0.0 mm 0.00 in0.0 mm
04:10 PM 43.4°F6.3°C 38.2°F3.4°C 82% 4.6 mph ENE7.4 kmh ENE 6.9 mph11.1 kmh 30.40 in1029.5 mb - 0.00 in0.0 mm 0.00 in0.0 mm
04:15 PM 43.3°F6.3°C 38.5°F3.6°C 83% 4.6 mph E7.4 kmh E 6.9 mph11.1 kmh 30.40 in1029.5 mb - 0.00 in0.0 mm 0.00 in0.0 mm
04:20 PM 43.4°F6.3°C 38.6°F3.7°C 83% 3.5 mph E5.6 kmh E 4.6 mph7.4 kmh 30.40 in1029.5 mb - 0.00 in0.0 mm 0.00 in0.0 mm
04:25 PM 43.3°F6.3°C 38.2°F3.4°C 82% 4.6 mph ESE7.4 kmh ESE 4.6 mph7.4 kmh 30.40 in1029.5 mb - 0.00 in0.0 mm 0.00 in0.0 mm
04:30 PM 43.1°F6.2°C 38.3°F3.5°C 83% 6.9 mph E11.1 kmh E 9.2 mph14.8 kmh 30.40 in1029.5 mb - 0.00 in0.0 mm 0.00 in0.0 mm
04:35 PM 42.9°F6.1°C 38.4°F3.6°C 84% 4.6 mph ENE7.4 kmh ENE 8.1 mph13.0 kmh 30.40 in1029.5 mb - 0.00 in0.0 mm 0.00 in0.0 mm
04:40 PM 42.7°F5.9°C 38.2°F3.4°C 84% 3.5 mph NE5.6 kmh NE 4.6 mph7.4 kmh 30.40 in1029.5 mb - 0.00 in0.0 mm 0.00 in0.0 mm
04:45 PM 42.6°F5.9°C 38.4°F3.6°C 85% 2.3 mph E3.7 kmh E 3.5 mph5.6 kmh 30.40 in1029.5 mb - 0.00 in0.0 mm 0.00 in0.0 mm
04:50 PM 42.4°F5.8°C 38.6°F3.7°C 86% 2.3 mph E3.7 kmh E 3.5 mph5.6 kmh 30.40 in1029.5 mb - 0.00 in0.0 mm 0.00 in0.0 mm
04:55 PM 42.3°F5.7°C 38.4°F3.6°C 86% 2.3 mph E3.7 kmh E 3.5 mph5.6 kmh 30.40 in1029.5 mb - 0.00 in0.0 mm 0.00 in0.0 mm
05:00 PM 42.3°F5.7°C 38.7°F3.7°C 87% 3.5 mph E5.6 kmh E 4.6 mph7.4 kmh 30.40 in1029.5 mb - 0.00 in0.0 mm 0.00 in0.0 mm
05:05 PM 42.4°F5.8°C 38.8°F3.8°C 87% 2.3 mph ENE3.7 kmh ENE 3.5 mph5.6 kmh 30.40 in1029.5 mb - 0.00 in0.0 mm 0.00 in0.0 mm
05:10 PM 42.4°F5.8°C 38.8°F3.8°C 87% 1.2 mph E1.9 kmh E 2.3 mph3.7 kmh 30.40 in1029.5 mb - 0.00 in0.0 mm 0.00 in0.0 mm
05:15 PM 42.2°F5.7°C 38.6°F3.7°C 87% 1.2 mph E1.9 kmh E 2.3 mph3.7 kmh 30.41 in1029.8 mb - 0.00 in0.0 mm 0.00 in0.0 mm
05:20 PM 42.3°F5.7°C 38.7°F3.7°C 87% 1.2 mph E1.9 kmh E 2.3 mph3.7 kmh 30.41 in1029.8 mb - 0.00 in0.0 mm 0.00 in0.0 mm
05:25 PM 42.5°F5.8°C 38.9°F3.8°C 87% 1.2 mph E1.9 kmh E 1.2 mph1.9 kmh 30.41 in1029.8 mb - 0.00 in0.0 mm 0.00 in0.0 mm
05:30 PM 42.3°F5.7°C 38.7°F3.7°C 87% 1.2 mph E1.9 kmh E 2.3 mph3.7 kmh 30.41 in1029.8 mb - 0.00 in0.0 mm 0.00 in0.0 mm
05:35 PM 42.2°F5.7°C 38.9°F3.8°C 88% Calm Calm -- 30.41 in1029.8 mb - 0.00 in0.0 mm 0.00 in0.0 mm
05:40 PM 42.4°F5.8°C 39.1°F3.9°C 88% 1.2 mph E1.9 kmh E 2.3 mph3.7 kmh 30.41 in1029.8 mb - 0.00 in0.0 mm 0.00 in0.0 mm
05:45 PM 42.5°F5.8°C 38.9°F3.8°C 87% 1.2 mph E1.9 kmh E 2.3 mph3.7 kmh 30.41 in1029.8 mb - 0.00 in0.0 mm 0.00 in0.0 mm
05:50 PM 42.5°F5.8°C 39.2°F4.0°C 88% 1.2 mph E1.9 kmh E 1.2 mph1.9 kmh 30.41 in1029.8 mb - 0.00 in0.0 mm 0.00 in0.0 mm
05:55 PM 42.5°F5.8°C 39.2°F4.0°C 88% Calm Calm -- 30.41 in1029.8 mb - 0.00 in0.0 mm 0.00 in0.0 mm
06:00 PM 42.5°F5.8°C 39.2°F4.0°C 88% 1.2 mph E1.9 kmh E 1.2 mph1.9 kmh 30.41 in1029.8 mb - 0.00 in0.0 mm 0.00 in0.0 mm
06:05 PM 42.5°F5.8°C 39.2°F4.0°C 88% 2.3 mph E3.7 kmh E 3.5 mph5.6 kmh 30.41 in1029.8 mb - 0.00 in0.0 mm 0.00 in0.0 mm
06:10 PM 42.4°F5.8°C 39.1°F3.9°C 88% 2.3 mph E3.7 kmh E 4.6 mph7.4 kmh 30.41 in1029.8 mb - 0.00 in0.0 mm 0.00 in0.0 mm
06:15 PM 42.4°F5.8°C 39.1°F3.9°C 88% 3.5 mph ENE5.6 kmh ENE 4.6 mph7.4 kmh 30.41 in1029.8 mb - 0.00 in0.0 mm 0.00 in0.0 mm
06:20 PM 42.5°F5.8°C 39.2°F4.0°C 88% 3.5 mph ENE5.6 kmh ENE 4.6 mph7.4 kmh 30.40 in1029.5 mb - 0.00 in0.0 mm 0.00 in0.0 mm
06:25 PM 42.4°F5.8°C 39.4°F4.1°C 89% 3.5 mph E5.6 kmh E 6.9 mph11.1 kmh 30.40 in1029.5 mb - 0.00 in0.0 mm 0.00 in0.0 mm
06:30 PM 42.2°F5.7°C 39.2°F4.0°C 89% 5.8 mph E9.3 kmh E 6.9 mph11.1 kmh 30.40 in1029.5 mb - 0.00 in0.0 mm 0.00 in0.0 mm
06:35 PM 42.0°F5.6°C 39.3°F4.1°C 90% 2.3 mph E3.7 kmh E 3.5 mph5.6 kmh 30.40 in1029.5 mb - 0.00 in0.0 mm 0.00 in0.0 mm
06:40 PM 41.9°F5.5°C 39.5°F4.2°C 91% 2.3 mph E3.7 kmh E 4.6 mph7.4 kmh 30.40 in1029.5 mb - 0.00 in0.0 mm 0.00 in0.0 mm
06:45 PM 41.9°F5.5°C 39.4°F4.1°C 91% 4.6 mph ENE7.4 kmh ENE 4.6 mph7.4 kmh 30.40 in1029.5 mb - 0.00 in0.0 mm 0.00 in0.0 mm
06:50 PM 41.7°F5.4°C 39.3°F4.1°C 91% 2.3 mph NE3.7 kmh NE 4.6 mph7.4 kmh 30.40 in1029.5 mb - 0.00 in0.0 mm 0.00 in0.0 mm
06:55 PM 41.7°F5.4°C 39.5°F4.2°C 92% 3.5 mph E5.6 kmh E 4.6 mph7.4 kmh 30.40 in1029.5 mb - 0.00 in0.0 mm 0.00 in0.0 mm
07:00 PM 41.6°F5.3°C 39.4°F4.1°C 92% 2.3 mph ENE3.7 kmh ENE 4.6 mph7.4 kmh 30.41 in1029.8 mb - 0.00 in0.0 mm 0.00 in0.0 mm
07:05 PM 41.7°F5.4°C 39.5°F4.2°C 92% 3.5 mph E5.6 kmh E 4.6 mph7.4 kmh 30.40 in1029.5 mb - 0.00 in0.0 mm 0.00 in0.0 mm
07:10 PM 41.6°F5.3°C 39.5°F4.2°C 92% 1.2 mph SE1.9 kmh SE 2.3 mph3.7 kmh 30.41 in1029.8 mb - 0.00 in0.0 mm 0.00 in0.0 mm
07:15 PM 41.8°F5.4°C 39.6°F4.2°C 92% 2.3 mph ESE3.7 kmh ESE 3.5 mph5.6 kmh 30.40 in1029.5 mb - 0.00 in0.0 mm 0.00 in0.0 mm
07:20 PM 41.9°F5.5°C 39.7°F4.3°C 92% 3.5 mph ESE5.6 kmh ESE 4.6 mph7.4 kmh 30.40 in1029.5 mb - 0.00 in0.0 mm 0.00 in0.0 mm
07:25 PM 41.8°F5.4°C 39.6°F4.2°C 92% 3.5 mph E5.6 kmh E 4.6 mph7.4 kmh 30.40 in1029.5 mb - 0.00 in0.0 mm 0.00 in0.0 mm
07:30 PM 41.8°F5.4°C 39.6°F4.2°C 92% 4.6 mph E7.4 kmh E 5.8 mph9.3 kmh 30.40 in1029.5 mb - 0.00 in0.0 mm 0.00 in0.0 mm
07:35 PM 41.8°F5.4°C 39.6°F4.2°C 92% 2.3 mph E3.7 kmh E 6.9 mph11.1 kmh 30.39 in1029.1 mb - 0.00 in0.0 mm 0.00 in0.0 mm
07:40 PM 41.8°F5.4°C 39.6°F4.2°C 92% 6.9 mph E11.1 kmh E 10.4 mph16.7 kmh 30.39 in1029.1 mb - 0.00 in0.0 mm 0.00 in0.0 mm
07:45 PM 41.8°F5.4°C 39.9°F4.4°C 93% 4.6 mph E7.4 kmh E 5.8 mph9.3 kmh 30.39 in1029.1 mb - 0.00 in0.0 mm 0.00 in0.0 mm
07:50 PM 41.7°F5.4°C 39.8°F4.3°C 93% 2.3 mph E3.7 kmh E 5.8 mph9.3 kmh 30.39 in1029.1 mb - 0.00 in0.0 mm 0.00 in0.0 mm
07:55 PM 41.7°F5.4°C 39.8°F4.3°C 93% 2.3 mph E3.7 kmh E 5.8 mph9.3 kmh 30.39 in1029.1 mb - 0.00 in0.0 mm 0.00 in0.0 mm
08:00 PM 41.6°F5.3°C 39.7°F4.3°C 93% 4.6 mph ENE7.4 kmh ENE 4.6 mph7.4 kmh 30.39 in1029.1 mb - 0.00 in0.0 mm 0.00 in0.0 mm
08:05 PM 41.6°F5.3°C 39.7°F4.3°C 93% 3.5 mph E5.6 kmh E 5.8 mph9.3 kmh 30.39 in1029.1 mb - 0.00 in0.0 mm 0.00 in0.0 mm
08:10 PM 41.8°F5.4°C 39.9°F4.4°C 93% 2.3 mph ESE3.7 kmh ESE 3.5 mph5.6 kmh 30.39 in1029.1 mb - 0.00 in0.0 mm 0.00 in0.0 mm
08:15 PM 41.8°F5.4°C 40.0°F4.4°C 93% 3.5 mph SE5.6 kmh SE 4.6 mph7.4 kmh 30.39 in1029.1 mb - 0.00 in0.0 mm 0.00 in0.0 mm
08:20 PM 41.9°F5.5°C 39.7°F4.3°C 92% 2.3 mph ESE3.7 kmh ESE 3.5 mph5.6 kmh 30.39 in1029.1 mb - 0.00 in0.0 mm 0.00 in0.0 mm
08:25 PM 42.0°F5.6°C 39.8°F4.3°C 92% 4.6 mph E7.4 kmh E 5.8 mph9.3 kmh 30.39 in1029.1 mb - 0.00 in0.0 mm 0.00 in0.0 mm
08:30 PM 42.0°F5.6°C 39.9°F4.4°C 92% 3.5 mph SE5.6 kmh SE 3.5 mph5.6 kmh 30.39 in1029.1 mb - 0.00 in0.0 mm 0.00 in0.0 mm
08:35 PM 42.1°F5.6°C 39.9°F4.4°C 92% 2.3 mph E3.7 kmh E 4.6 mph7.4 kmh 30.39 in1029.1 mb - 0.00 in0.0 mm 0.00 in0.0 mm
08:40 PM 42.1°F5.6°C 39.9°F4.4°C 92% 1.2 mph ESE1.9 kmh ESE 3.5 mph5.6 kmh 30.39 in1029.1 mb - 0.00 in0.0 mm 0.00 in0.0 mm
08:45 PM 42.2°F5.7°C 40.0°F4.4°C 92% 2.3 mph ESE3.7 kmh ESE 3.5 mph5.6 kmh 30.39 in1029.1 mb - 0.00 in0.0 mm 0.00 in0.0 mm
08:50 PM 42.3°F5.7°C 40.1°F4.5°C 92% 1.2 mph ESE1.9 kmh ESE 2.3 mph3.7 kmh 30.39 in1029.1 mb - 0.00 in0.0 mm 0.00 in0.0 mm
08:55 PM 42.3°F5.7°C 40.1°F4.5°C 92% 3.5 mph E5.6 kmh E 4.6 mph7.4 kmh 30.39 in1029.1 mb - 0.00 in0.0 mm 0.00 in0.0 mm
09:00 PM 42.3°F5.7°C 40.2°F4.6°C 92% 2.3 mph SE3.7 kmh SE 3.5 mph5.6 kmh 30.39 in1029.1 mb - 0.00 in0.0 mm 0.00 in0.0 mm
09:05 PM 42.4°F5.8°C 40.2°F4.6°C 92% 3.5 mph E5.6 kmh E 4.6 mph7.4 kmh 30.39 in1029.1 mb - 0.00 in0.0 mm 0.00 in0.0 mm
09:10 PM 42.4°F5.8°C 40.0°F4.4°C 91% 1.2 mph ESE1.9 kmh ESE 2.3 mph3.7 kmh 30.39 in1029.1 mb - 0.00 in0.0 mm 0.00 in0.0 mm
09:15 PM 42.4°F5.8°C 40.0°F4.4°C 91% 2.3 mph E3.7 kmh E 4.6 mph7.4 kmh 30.39 in1029.1 mb - 0.00 in0.0 mm 0.00 in0.0 mm
09:20 PM 42.4°F5.8°C 40.0°F4.4°C 91% 3.5 mph ENE5.6 kmh ENE 4.6 mph7.4 kmh 30.39 in1029.1 mb - 0.00 in0.0 mm 0.00 in0.0 mm
09:25 PM 42.5°F5.8°C 40.1°F4.5°C 91% 2.3 mph ESE3.7 kmh ESE 4.6 mph7.4 kmh 30.39 in1029.1 mb - 0.00 in0.0 mm 0.00 in0.0 mm
09:30 PM 42.5°F5.8°C 40.1°F4.5°C 91% 3.5 mph E5.6 kmh E 6.9 mph11.1 kmh 30.39 in1029.1 mb - 0.00 in0.0 mm 0.00 in0.0 mm
09:35 PM 42.6°F5.9°C 40.1°F4.5°C 91% 2.3 mph E3.7 kmh E 4.6 mph7.4 kmh 30.39 in1029.1 mb - 0.00 in0.0 mm 0.00 in0.0 mm
09:40 PM 42.7°F5.9°C 40.2°F4.6°C 91% 3.5 mph E5.6 kmh E 4.6 mph7.4 kmh 30.40 in1029.5 mb - 0.00 in0.0 mm 0.00 in0.0 mm
09:45 PM 42.6°F5.9°C 40.2°F4.6°C 91% 1.2 mph E1.9 kmh E 2.3 mph3.7 kmh 30.40 in1029.5 mb - 0.00 in0.0 mm 0.00 in0.0 mm
09:50 PM 42.7°F5.9°C 40.2°F4.6°C 91% 2.3 mph ESE3.7 kmh ESE 4.6 mph7.4 kmh 30.40 in1029.5 mb - 0.00 in0.0 mm 0.00 in0.0 mm
09:55 PM 42.7°F5.9°C 40.3°F4.6°C 91% 3.5 mph ESE5.6 kmh ESE 4.6 mph7.4 kmh 30.40 in1029.5 mb - 0.00 in0.0 mm 0.00 in0.0 mm
10:00 PM 42.6°F5.9°C 40.1°F4.5°C 91% 3.5 mph SE5.6 kmh SE 4.6 mph7.4 kmh 30.40 in1029.5 mb - 0.00 in0.0 mm 0.00 in0.0 mm
10:05 PM 42.5°F5.8°C 40.3°F4.6°C 92% 3.5 mph E5.6 kmh E 5.8 mph9.3 kmh 30.39 in1029.1 mb - 0.00 in0.0 mm 0.00 in0.0 mm
10:10 PM 42.4°F5.8°C 40.3°F4.6°C 92% 3.5 mph E5.6 kmh E 3.5 mph5.6 kmh 30.39 in1029.1 mb - 0.00 in0.0 mm 0.00 in0.0 mm
10:15 PM 42.4°F5.8°C 40.2°F4.6°C 92% 2.3 mph ESE3.7 kmh ESE 5.8 mph9.3 kmh 30.39 in1029.1 mb - 0.00 in0.0 mm 0.00 in0.0 mm
10:20 PM 42.5°F5.8°C 40.3°F4.6°C 92% 1.2 mph ESE1.9 kmh ESE 3.5 mph5.6 kmh 30.39 in1029.1 mb - 0.00 in0.0 mm 0.00 in0.0 mm
10:25 PM 42.5°F5.8°C 40.6°F4.8°C 93% 3.5 mph E5.6 kmh E 5.8 mph9.3 kmh 30.39 in1029.1 mb - 0.00 in0.0 mm 0.00 in0.0 mm
10:30 PM 42.4°F5.8°C 40.5°F4.7°C 93% 2.3 mph SE3.7 kmh SE 4.6 mph7.4 kmh 30.40 in1029.5 mb - 0.00 in0.0 mm 0.00 in0.0 mm
10:35 PM 42.3°F5.7°C 40.5°F4.7°C 93% 2.3 mph SE3.7 kmh SE 2.3 mph3.7 kmh 30.40 in1029.5 mb - 0.00 in0.0 mm 0.00 in0.0 mm
10:40 PM 42.3°F5.7°C 40.7°F4.8°C 94% 1.2 mph ESE1.9 kmh ESE 3.5 mph5.6 kmh 30.40 in1029.5 mb - 0.00 in0.0 mm 0.00 in0.0 mm
10:45 PM 42.2°F5.7°C 40.6°F4.8°C 94% 2.3 mph E3.7 kmh E 4.6 mph7.4 kmh 30.40 in1029.5 mb - 0.00 in0.0 mm 0.00 in0.0 mm
10:50 PM 42.2°F5.7°C 40.6°F4.8°C 94% 2.3 mph ESE3.7 kmh ESE 3.5 mph5.6 kmh 30.40 in1029.5 mb - 0.00 in0.0 mm 0.00 in0.0 mm
10:55 PM 42.2°F5.7°C 40.6°F4.8°C 94% 2.3 mph E3.7 kmh E 4.6 mph7.4 kmh 30.39 in1029.1 mb - 0.00 in0.0 mm 0.00 in0.0 mm
11:00 PM 42.1°F5.6°C 40.5°F4.7°C 94% 3.5 mph E5.6 kmh E 4.6 mph7.4 kmh 30.39 in1029.1 mb - 0.00 in0.0 mm 0.00 in0.0 mm
11:05 PM 42.1°F5.6°C 40.8°F4.9°C 95% 2.3 mph ESE3.7 kmh ESE 4.6 mph7.4 kmh 30.39 in1029.1 mb - 0.00 in0.0 mm 0.00 in0.0 mm
11:10 PM 42.1°F5.6°C 40.8°F4.9°C 95% 2.3 mph ESE3.7 kmh ESE 3.5 mph5.6 kmh 30.39 in1029.1 mb - 0.00 in0.0 mm 0.00 in0.0 mm
11:15 PM 42.2°F5.7°C 40.9°F4.9°C 95% 2.3 mph E3.7 kmh E 3.5 mph5.6 kmh 30.39 in1029.1 mb - 0.00 in0.0 mm 0.00 in0.0 mm
11:20 PM 42.2°F5.7°C 40.9°F4.9°C 95% 2.3 mph E3.7 kmh E 3.5 mph5.6 kmh 30.39 in1029.1 mb - 0.00 in0.0 mm 0.00 in0.0 mm
11:25 PM 42.2°F5.7°C 40.9°F4.9°C 95% 3.5 mph ESE5.6 kmh ESE 6.9 mph11.1 kmh 30.39 in1029.1 mb - 0.00 in0.0 mm 0.00 in0.0 mm
11:30 PM 42.2°F5.7°C 40.9°F4.9°C 95% 4.6 mph E7.4 kmh E 6.9 mph11.1 kmh 30.39 in1029.1 mb - 0.00 in0.0 mm 0.00 in0.0 mm
11:35 PM 42.2°F5.7°C 40.8°F4.9°C 95% 3.5 mph ESE5.6 kmh ESE 6.9 mph11.1 kmh 30.39 in1029.1 mb - 0.00 in0.0 mm 0.00 in0.0 mm
11:40 PM 42.1°F5.6°C 40.8°F4.9°C 95% 3.5 mph E5.6 kmh E 6.9 mph11.1 kmh 30.39 in1029.1 mb - 0.00 in0.0 mm 0.00 in0.0 mm
11:45 PM 42.1°F5.6°C 40.8°F4.9°C 95% 2.3 mph E3.7 kmh E 5.8 mph9.3 kmh 30.39 in1029.1 mb - 0.00 in0.0 mm 0.00 in0.0 mm
11:50 PM 42.1°F5.6°C 40.8°F4.9°C 95% 3.5 mph E5.6 kmh E 3.5 mph5.6 kmh 30.38 in1028.8 mb - 0.00 in0.0 mm 0.00 in0.0 mm
11:55 PM 42.1°F5.6°C 40.8°F4.9°C 95% 3.5 mph E5.6 kmh E 8.1 mph13.0 kmh 30.38 in1028.8 mb - 0.00 in0.0 mm 0.00 in0.0 mm